Yarmouth, Iowa
Current Conditions -  °F | °C
As of 9:35 AM on Friday 24 Oct 2014 (Local Time) from KMPZ Reporting Station
Moderate Fog Moderate Fog  
Wind Chill: 53°   Ceiling: 100
Heat Index: 53°   Visibility: 0.25mi
Dew Point: 53°   Wind: 7mph
Humidity: 100%   Direction: 180°S
Pressure: 30.07"   Gusts: NA
Location:  41.03°N, 91.32°W
Report Text: KMPZ 241435Z AUTO 18006KT 1/4SM FG OVC001 12/12 A3007 RMK AO2 T01190119
Loading
Personal Weather Stations






























Interactive Weather Map
Tropical Storm Tracking
New forecast layout! Learn more

10-Day Weather Forecast

Advertisements
Track Severe Weather on mobile